Time;durP1;ratioP1;P1;durP2;ratioP2;P2;SDS_P1;SDS_P2;PMS_P1;PMS_P2;Temp;Humidity;BMP_temperature;BMP_pressure;BME280_temperature;BME280_humidity;BME280_pressure;Samples;Min_cycle;Max_cycle;Signal;HPM_P1;HPM_P2
2022/05/01 00:01:51;;;;;;;;;;;;;;;10.23;71.97;93009.47;2058736;69;20497;-70
2022/05/01 00:04:16;;;;;;;;;;;;;;;10.25;71.66;93006.06;2058821;69;20130;-71
2022/05/01 00:06:42;;;;;;;;;;;;;;;10.12;72.81;93007.31;2058643;69;20046;-71
2022/05/01 00:09:08;;;;;;;;;;;;;;;10.03;73.44;92999.66;2058385;69;20137;-70
2022/05/01 00:11:33;;;;;;;;;;;;;;;10.08;73.00;92999.34;2071683;69;20137;-71
2022/05/01 00:13:59;;;;;;;;;;;;;;;10.00;73.30;92998.06;2058673;69;20146;-69
2022/05/01 00:16:25;;;;;;;;;;;;;;;10.15;72.21;92992.03;2058682;69;20525;-69
2022/05/01 00:18:50;;;;;;;;;;;;;;;10.13;72.74;92997.56;2071735;69;20072;-69
2022/05/01 00:21:16;;;;;;;;;;;;;;;10.15;72.04;93006.84;2058627;69;20474;-70
2022/05/01 00:23:41;;;;;;;;;;;;;;;10.15;72.11;92997.69;2058789;69;20219;-71
2022/05/01 00:26:07;;;;;;;;;;;;;;;10.14;72.55;92996.19;2058693;69;20043;-70
2022/05/01 00:28:33;;;;;;;;;;;;;;;10.14;71.55;93001.84;2071336;69;20054;-70
2022/05/01 00:30:59;;;;;;;;;;;;;;;10.15;72.44;93003.31;2071605;69;20053;-70
2022/05/01 00:36:27;;;;;;;;;;;;;;;10.06;73.09;93001.28;2058653;69;20050;-70
2022/05/01 00:39:06;;;;;;;;;;;;;;;10.10;72.53;93002.28;2058558;69;20488;-69
2022/05/01 00:41:32;;;;;;;;;;;;;;;10.17;71.73;93003.44;2058638;69;20050;-69
2022/05/01 00:44:00;;;;;;;;;;;;;;;10.19;71.13;92995.13;2058655;69;20054;-70
2022/05/01 00:46:26;;;;;;;;;;;;;;;10.11;72.48;92997.41;2058707;69;20065;-71
2022/05/01 00:48:51;;;;;;;;;;;;;;;10.07;73.32;92997.84;2058790;69;20049;-71
2022/05/01 00:51:18;;;;;;;;;;;;;;;10.02;73.46;92992.56;2058538;69;20491;-70
2022/05/01 00:53:44;;;;;;;;;;;;;;;10.08;72.52;92996.53;2058559;69;20053;-70
2022/05/01 00:56:10;;;;;;;;;;;;;;;10.06;72.68;92990.03;2058563;69;20420;-70
2022/05/01 00:58:37;;;;;;;;;;;;;;;10.05;73.02;92997.00;2071540;69;20054;-71
2022/05/01 01:01:02;;;;;;;;;;;;;;;9.88;73.99;92997.97;2058566;69;20050;-71
2022/05/01 01:03:28;;;;;;;;;;;;;;;9.87;74.36;92993.69;2058528;69;20150;-70
2022/05/01 01:05:54;;;;;;;;;;;;;;;10.00;71.94;92984.75;2058778;69;20066;-71
2022/05/01 01:12:53;;;;;;;;;;;;;;;9.96;72.59;92984.47;2059087;69;20045;-71
2022/05/01 01:14:34;;;;;;;;;;;;;;;9.90;73.45;92984.78;2059101;69;20057;-70
2022/05/01 01:16:59;;;;;;;;;;;;;;;9.93;73.63;92983.56;2059140;69;20070;-71
2022/05/01 01:19:25;;;;;;;;;;;;;;;9.89;73.28;92983.28;2072108;69;20050;-72
2022/05/01 01:21:51;;;;;;;;;;;;;;;9.95;72.81;92983.00;2058990;69;20512;-71
2022/05/01 01:24:17;;;;;;;;;;;;;;;10.01;72.21;92974.22;2059143;69;20110;-71
2022/05/01 01:26:43;;;;;;;;;;;;;;;9.92;72.81;92982.09;2059100;69;20054;-69
2022/05/01 01:31:55;;;;;;;;;;;;;;;9.82;73.13;92975.81;2059146;69;20050;-69
2022/05/01 01:34:22;;;;;;;;;;;;;;;9.91;71.11;92975.00;2059145;69;20052;-69
2022/05/01 01:36:48;;;;;;;;;;;;;;;9.86;72.96;92981.72;2058982;69;20152;-69
2022/05/01 01:39:18;;;;;;;;;;;;;;;9.86;73.78;92976.09;2058723;69;20100;-69
2022/05/01 01:41:44;;;;;;;;;;;;;;;9.85;72.85;92980.25;2059225;69;20155;-70
2022/05/01 01:44:09;;;;;;;;;;;;;;;9.83;72.40;92980.09;2058964;69;20114;-70
2022/05/01 01:46:37;;;;;;;;;;;;;;;9.79;72.90;92979.06;2059060;69;20147;-69
2022/05/01 01:49:07;;;;;;;;;;;;;;;9.87;72.65;92971.94;2059015;69;20054;-69
2022/05/01 01:51:33;;;;;;;;;;;;;;;9.81;73.90;92976.41;2059041;69;20478;-69
2022/05/01 01:53:58;;;;;;;;;;;;;;;9.77;73.79;92976.13;2058799;69;20049;-70
2022/05/01 01:56:24;;;;;;;;;;;;;;;9.93;72.54;92968.78;2059012;69;20134;-70
2022/05/01 01:58:49;;;;;;;;;;;;;;;9.91;72.92;92972.19;2058984;69;20144;-71
2022/05/01 02:01:15;;;;;;;;;;;;;;;9.88;73.15;92978.28;2059051;69;20089;-71
2022/05/01 02:03:40;;;;;;;;;;;;;;;9.80;73.73;92970.03;2059037;69;20074;-71
2022/05/01 02:06:06;;;;;;;;;;;;;;;9.87;72.80;92974.75;2058725;69;20473;-71
2022/05/01 02:08:34;;;;;;;;;;;;;;;9.66;74.16;92966.25;2058980;69;20042;-72
2022/05/01 02:11:00;;;;;;;;;;;;;;;9.87;72.36;92966.31;2059090;69;20489;-71
2022/05/01 02:13:26;;;;;;;;;;;;;;;9.82;72.27;92961.75;2059287;69;20049;-71
2022/05/01 02:15:51;;;;;;;;;;;;;;;9.67;73.81;92960.06;2059047;69;20052;-72
2022/05/01 02:18:17;;;;;;;;;;;;;;;9.65;74.38;92964.78;2058876;69;20559;-72
2022/05/01 02:24:12;;;;;;;;;;;;;;;9.77;74.23;92957.19;2058739;69;20053;-73
2022/05/01 02:26:38;;;;;;;;;;;;;;;9.84;72.04;92956.25;2072100;69;20050;-71
2022/05/01 02:29:12;;;;;;;;;;;;;;;9.85;73.14;92948.53;2059009;69;20122;-72
2022/05/01 02:31:42;;;;;;;;;;;;;;;9.79;73.26;92959.38;2072259;69;20146;-71
2022/05/01 02:34:08;;;;;;;;;;;;;;;9.73;74.20;92945.66;2059037;69;20054;-72
2022/05/01 02:36:33;;;;;;;;;;;;;;;9.82;73.46;92941.31;2058964;69;20137;-72
2022/05/01 02:38:59;;;;;;;;;;;;;;;9.85;72.82;92948.53;2059035;69;20496;-72
2022/05/01 02:41:25;;;;;;;;;;;;;;;9.90;71.99;92947.50;2072144;69;20073;-72
2022/05/01 02:43:51;;;;;;;;;;;;;;;9.84;72.66;92944.25;2059001;69;20568;-72
2022/05/01 02:46:16;;;;;;;;;;;;;;;9.77;73.23;92942.41;2058989;69;20429;-71
2022/05/01 02:48:43;;;;;;;;;;;;;;;9.77;72.64;92945.94;2058661;69;20050;-72
2022/05/01 02:51:10;;;;;;;;;;;;;;;9.72;73.71;92946.28;2058912;69;20051;-72
2022/05/01 02:53:36;;;;;;;;;;;;;;;9.82;71.93;92944.13;2058929;69;20479;-72
2022/05/01 02:56:02;;;;;;;;;;;;;;;9.78;73.20;92943.88;2058967;69;20050;-72
2022/05/01 02:58:27;;;;;;;;;;;;;;;9.75;73.26;92945.78;2059008;69;20088;-72
2022/05/01 03:00:53;;;;;;;;;;;;;;;9.78;73.18;92950.22;2072172;69;20048;-72
2022/05/01 03:03:18;;;;;;;;;;;;;;;9.86;71.64;92955.66;2058997;69;20111;-71
2022/05/01 03:05:44;;;;;;;;;;;;;;;9.76;73.36;92949.34;2058901;69;20069;-72
2022/05/01 03:08:12;;;;;;;;;;;;;;;9.73;72.77;92945.66;2058879;69;20061;-72
2022/05/01 03:10:37;;;;;;;;;;;;;;;9.78;73.29;92947.41;2058975;69;20054;-72
2022/05/01 03:13:03;;;;;;;;;;;;;;;9.76;73.60;92947.28;2058944;69;20072;-71
2022/05/01 03:15:28;;;;;;;;;;;;;;;9.86;71.00;92947.22;2058915;69;20413;-71
2022/05/01 03:23:22;;;;;;;;;;;;;;;9.72;73.05;92944.19;2058869;69;20077;-72
2022/05/01 03:25:47;;;;;;;;;;;;;;;9.71;73.68;92948.31;2059026;69;20112;-72
2022/05/01 03:28:12;;;;;;;;;;;;;;;9.74;72.87;92944.31;2071926;69;20049;-72
2022/05/01 03:30:38;;;;;;;;;;;;;;;9.68;73.02;92941.84;2059069;69;20099;-72
2022/05/01 03:33:06;;;;;;;;;;;;;;;9.75;72.75;92948.59;2059019;69;20046;-72
2022/05/01 03:35:35;;;;;;;;;;;;;;;9.79;71.97;92945.34;2058858;69;20050;-72
2022/05/01 03:38:01;;;;;;;;;;;;;;;9.77;72.40;92945.22;2058905;69;20570;-72
2022/05/01 03:40:27;;;;;;;;;;;;;;;9.56;74.57;92943.81;2058981;69;20050;-71
2022/05/01 03:46:22;;;;;;;;;;;;;;;9.66;72.74;92933.25;2058932;69;20106;-72
2022/05/01 03:48:48;;;;;;;;;;;;;;;9.68;73.00;92935.47;2071871;69;20050;-72
2022/05/01 03:51:13;;;;;;;;;;;;;;;9.67;73.64;92939.63;2058768;69;20111;-72
2022/05/01 03:53:39;;;;;;;;;;;;;;;9.66;73.73;92932.53;2058565;69;20053;-71
2022/05/01 03:56:05;;;;;;;;;;;;;;;9.68;72.53;92935.47;2058875;69;20112;-72
2022/05/01 03:58:30;;;;;;;;;;;;;;;9.58;73.96;92937.63;2058827;69;20054;-73
2022/05/01 04:00:56;;;;;;;;;;;;;;;9.63;73.11;92934.47;2058955;69;20050;-72
2022/05/01 04:03:22;;;;;;;;;;;;;;;9.68;72.08;92924.97;2058833;69;20054;-73
2022/05/01 04:05:48;;;;;;;;;;;;;;;9.62;73.72;92941.44;2058828;69;20054;-72
2022/05/01 04:08:13;;;;;;;;;;;;;;;9.65;72.61;92937.41;2058682;69;20426;-71
2022/05/01 04:10:41;;;;;;;;;;;;;;;9.60;73.78;92938.47;2058839;69;20046;-72
2022/05/01 04:13:06;;;;;;;;;;;;;;;9.64;73.36;92940.84;2071863;69;20053;-72
2022/05/01 04:15:32;;;;;;;;;;;;;;;9.64;73.56;92940.84;2058810;69;20066;-72
2022/05/01 04:17:58;;;;;;;;;;;;;;;9.57;74.29;92942.47;2058454;69;20053;-72
2022/05/01 04:20:25;;;;;;;;;;;;;;;9.61;73.82;92939.94;2058668;69;20419;-72
2022/05/01 04:22:50;;;;;;;;;;;;;;;9.59;74.62;92939.81;2058770;69;20086;-73
2022/05/01 04:25:16;;;;;;;;;;;;;;;9.60;74.31;92944.09;2058799;69;20493;-72
2022/05/01 04:27:43;;;;;;;;;;;;;;;9.62;74.23;92943.50;2058785;69;20084;-72
2022/05/01 04:30:09;;;;;;;;;;;;;;;9.64;72.18;92940.84;2058783;69;20050;-72
2022/05/01 04:32:45;;;;;;;;;;;;;;;9.66;72.28;92940.97;2058707;69;20109;-72
2022/05/01 04:35:11;;;;;;;;;;;;;;;9.65;73.04;92947.91;2058586;69;20081;-72
2022/05/01 04:37:36;;;;;;;;;;;;;;;9.70;72.18;92944.03;2058800;69;20050;-72
2022/05/01 04:40:02;;;;;;;;;;;;;;;9.69;71.78;92942.56;2058888;69;20049;-72
2022/05/01 04:42:27;;;;;;;;;;;;;;;9.31;75.57;92943.50;2059359;69;20465;-73
2022/05/01 04:44:53;;;;;;;;;;;;;;;9.60;73.83;92952.53;2059273;69;20133;-72
2022/05/01 04:47:18;;;;;;;;;;;;;;;9.51;74.21;92942.06;2059221;69;20046;-72
2022/05/01 04:49:44;;;;;;;;;;;;;;;9.35;75.59;92938.16;2059318;69;20101;-72
2022/05/01 04:52:11;;;;;;;;;;;;;;;9.66;73.04;92938.16;2059091;69;20113;-72
2022/05/01 04:54:38;;;;;;;;;;;;;;;9.54;74.55;92943.69;2072162;69;20050;-72
2022/05/01 04:57:09;;;;;;;;;;;;;;;9.56;73.29;92943.81;2059150;69;20053;-72
2022/05/01 04:59:35;;;;;;;;;;;;;;;9.42;75.48;92942.84;2059233;69;20120;-72
2022/05/01 05:02:00;;;;;;;;;;;;;;;9.52;75.29;92937.91;2059337;69;20141;-72
2022/05/01 05:04:27;;;;;;;;;;;;;;;9.72;73.75;92949.81;2059228;69;20515;-72
2022/05/01 05:06:54;;;;;;;;;;;;;;;9.87;72.08;92948.69;2059053;69;20559;-72
2022/05/01 05:12:05;;;;;;;;;;;;;;;9.78;73.72;92953.03;2059280;69;20053;-72
2022/05/01 05:14:31;;;;;;;;;;;;;;;9.88;72.66;92959.34;2059119;69;20506;-72
2022/05/01 05:16:57;;;;;;;;;;;;;;;9.73;74.88;92954.09;2072107;69;20077;-72
2022/05/01 05:19:23;;;;;;;;;;;;;;;9.73;74.60;92959.00;2059143;69;20114;-72
2022/05/01 05:21:48;;;;;;;;;;;;;;;9.85;74.12;92963.38;2072214;69;20050;-72
2022/05/01 05:24:14;;;;;;;;;;;;;;;9.53;76.23;92961.13;2059166;69;20161;-72
2022/05/01 05:30:09;;;;;;;;;;;;;;;9.32;77.80;92962.56;2059175;69;20041;-71
2022/05/01 05:36:02;;;;;;;;;;;;;;;9.59;76.17;92967.19;2059130;69;20149;-71
2022/05/01 05:38:28;;;;;;;;;;;;;;;9.84;73.11;92967.50;2059270;69;20205;-69
2022/05/01 05:40:53;;;;;;;;;;;;;;;9.84;73.87;92964.69;2059266;69;20474;-73
2022/05/01 05:43:19;;;;;;;;;;;;;;;9.93;73.12;92965.97;2059097;69;20483;-71
2022/05/01 05:45:45;;;;;;;;;;;;;;;10.01;73.02;92962.97;2059288;69;20161;-72
2022/05/01 05:48:11;;;;;;;;;;;;;;;9.90;73.23;92967.19;2069359;69;20397;-72
2022/05/01 05:50:36;;;;;;;;;;;;;;;9.72;75.21;92969.50;2058992;69;20062;-72
2022/05/01 05:53:01;;;;;;;;;;;;;;;9.81;74.49;92970.78;2058819;69;20509;-71
2022/05/01 05:55:27;;;;;;;;;;;;;;;10.16;71.66;92963.31;2059089;69;20061;-71
2022/05/01 05:57:53;;;;;;;;;;;;;;;10.25;70.39;92973.06;2059240;69;20466;-72
2022/05/01 06:00:18;;;;;;;;;;;;;;;10.29;71.96;92975.41;2059034;69;20046;-71
2022/05/01 06:02:44;;;;;;;;;;;;;;;10.08;72.12;92979.66;2058794;69;20053;-70
2022/05/01 06:05:09;;;;;;;;;;;;;;;10.28;71.40;92982.38;2058957;69;20050;-72
2022/05/01 06:07:35;;;;;;;;;;;;;;;10.39;70.70;92982.41;2059140;69;20072;-72
2022/05/01 06:13:29;;;;;;;;;;;;;;;10.59;71.21;92991.47;2059094;69;20111;-72
2022/05/01 06:15:54;;;;;;;;;;;;;;;10.64;68.49;92987.56;2058986;69;20082;-73
2022/05/01 06:18:19;;;;;;;;;;;;;;;10.51;69.77;92993.75;2058931;69;20054;-72
2022/05/01 06:20:45;;;;;;;;;;;;;;;10.78;71.11;92989.84;2058991;69;20042;-72
2022/05/01 06:23:10;;;;;;;;;;;;;;;10.78;69.92;92987.75;2059143;69;20045;-72
2022/05/01 06:25:38;;;;;;;;;;;;;;;10.91;68.63;92989.28;2058987;69;20053;-72
2022/05/01 06:31:32;;;;;;;;;;;;;;;10.54;71.29;92986.19;2058881;69;20052;-71
2022/05/01 06:33:59;;;;;;;;;;;;;;;10.30;73.00;92986.03;2058779;69;20058;-71
2022/05/01 06:36:24;;;;;;;;;;;;;;;10.63;71.28;92991.75;2071996;69;20138;-70
2022/05/01 06:38:51;;;;;;;;;;;;;;;10.38;72.44;92991.47;2059015;69;20083;-71
2022/05/01 06:41:17;;;;;;;;;;;;;;;10.55;72.59;92990.47;2058944;69;20045;-71
2022/05/01 06:43:43;;;;;;;;;;;;;;;10.22;72.90;92987.56;2058995;69;20053;-72
2022/05/01 06:46:08;;;;;;;;;;;;;;;10.21;72.86;92994.53;2058843;69;20441;-70
2022/05/01 06:48:34;;;;;;;;;;;;;;;10.53;71.27;92995.97;2059170;69;20420;-71
2022/05/01 06:51:00;;;;;;;;;;;;;;;10.43;70.78;92987.59;2058862;69;20054;-73
2022/05/01 06:53:25;;;;;;;;;;;;;;;9.72;73.63;93002.50;2058985;69;20105;-72
2022/05/01 06:55:53;;;;;;;;;;;;;;;10.24;71.39;92994.09;2058894;69;20054;-73
2022/05/01 06:58:19;;;;;;;;;;;;;;;10.58;70.97;93001.28;2059011;69;20107;-73
2022/05/01 07:00:45;;;;;;;;;;;;;;;10.31;71.41;93001.59;2071932;69;20077;-72
2022/05/01 07:03:10;;;;;;;;;;;;;;;10.57;70.97;93001.84;2058986;69;20099;-73
2022/05/01 07:05:36;;;;;;;;;;;;;;;10.58;69.90;93000.50;2058883;69;20062;-73
2022/05/01 07:08:01;;;;;;;;;;;;;;;10.79;70.69;92994.84;2058995;69;20050;-73
2022/05/01 07:10:27;;;;;;;;;;;;;;;10.59;70.73;93002.00;2072123;69;20050;-73
2022/05/01 07:12:52;;;;;;;;;;;;;;;10.84;70.23;93005.03;2058893;69;20062;-73
2022/05/01 07:15:18;;;;;;;;;;;;;;;10.38;72.69;92995.03;2059012;69;20070;-70
2022/05/01 07:17:43;;;;;;;;;;;;;;;10.26;73.46;92999.09;2058910;69;20056;-71
2022/05/01 07:20:09;;;;;;;;;;;;;;;10.84;69.80;92998.69;2058817;69;20053;-69
2022/05/01 07:22:35;;;;;;;;;;;;;;;11.00;70.70;92999.00;2058710;69;20066;-71
2022/05/01 07:25:01;;;;;;;;;;;;;;;10.70;69.37;93004.13;2058929;69;20086;-69
2022/05/01 07:27:26;;;;;;;;;;;;;;;10.78;69.77;92999.03;2058821;69;20429;-70
2022/05/01 07:29:52;;;;;;;;;;;;;;;10.89;68.91;92992.69;2058986;69;20199;-70
2022/05/01 07:32:17;;;;;;;;;;;;;;;10.58;71.20;92992.81;2058909;69;20062;-71
2022/05/01 07:34:43;;;;;;;;;;;;;;;10.61;71.34;92996.50;2058838;69;20542;-72
2022/05/01 07:37:08;;;;;;;;;;;;;;;10.91;70.52;92992.84;2058800;69;20057;-70
2022/05/01 07:39:34;;;;;;;;;;;;;;;11.33;68.72;92987.69;2058862;69;20470;-71
2022/05/01 07:41:59;;;;;;;;;;;;;;;11.10;69.68;92991.91;2058939;69;20046;-72
2022/05/01 07:44:25;;;;;;;;;;;;;;;11.05;70.87;92992.28;2058552;69;20426;-72
2022/05/01 07:46:53;;;;;;;;;;;;;;;11.28;69.83;92988.78;2058883;69;20491;-72
2022/05/01 07:49:20;;;;;;;;;;;;;;;11.29;68.95;92998.69;2071727;69;20485;-72
2022/05/01 07:51:46;;;;;;;;;;;;;;;11.47;68.39;92991.38;2058800;69;20081;-73
2022/05/01 07:54:11;;;;;;;;;;;;;;;11.11;69.46;92987.75;2058919;69;20503;-73
2022/05/01 07:56:36;;;;;;;;;;;;;;;10.68;73.11;92990.66;2058707;69;20046;-73
2022/05/01 07:59:02;;;;;;;;;;;;;;;11.20;71.84;92991.81;2058878;69;20145;-69
2022/05/01 08:01:28;;;;;;;;;;;;;;;10.79;73.01;92985.69;2058804;69;20429;-70
2022/05/01 08:06:39;;;;;;;;;;;;;;;10.73;72.47;92988.84;2058783;69;20049;-72
2022/05/01 08:09:04;;;;;;;;;;;;;;;10.67;72.95;92980.75;2058808;69;20570;-73
2022/05/01 08:11:30;;;;;;;;;;;;;;;10.41;73.91;92988.19;2058715;69;20061;-71
2022/05/01 08:13:55;;;;;;;;;;;;;;;10.37;75.14;92987.94;2058715;69;20108;-72
2022/05/01 08:16:21;;;;;;;;;;;;;;;10.71;72.79;92985.16;2059183;69;20474;-73
2022/05/01 08:21:32;;;;;;;;;;;;;;;11.22;70.56;92983.47;2052502;70;20059;-75
2022/05/01 08:23:58;;;;;;;;;;;;;;;10.91;72.54;92983.66;2052519;69;20080;-70
2022/05/01 08:26:24;;;;;;;;;;;;;;;11.52;70.27;92984.66;2051913;70;20058;-70
2022/05/01 08:28:51;;;;;;;;;;;;;;;11.89;69.07;92976.34;2052515;69;20057;-71
2022/05/01 08:31:17;;;;;;;;;;;;;;;11.95;69.13;92982.34;2052610;70;20062;-71
2022/05/01 08:37:11;;;;;;;;;;;;;;;12.05;68.81;92975.84;2052614;70;20493;-70
2022/05/01 08:39:36;;;;;;;;;;;;;;;12.64;66.90;92980.03;2052702;69;20395;-70
2022/05/01 08:42:03;;;;;;;;;;;;;;;12.95;64.82;92973.28;2052783;70;20112;-71
2022/05/01 08:44:34;;;;;;;;;;;;;;;12.82;64.94;92982.44;2052645;70;20570;-70
2022/05/01 08:47:14;;;;;;;;;;;;;;;12.63;65.45;92977.81;2054566;70;20055;-70
2022/05/01 08:49:40;;;;;;;;;;;;;;;12.31;66.62;92976.66;2052548;69;20051;-71
2022/05/01 08:52:06;;;;;;;;;;;;;;;12.30;65.26;92978.03;2051986;70;20124;-71
2022/05/01 08:54:32;;;;;;;;;;;;;;;12.58;63.65;92971.22;2052658;69;20054;-73
2022/05/01 08:56:58;;;;;;;;;;;;;;;12.83;63.60;92967.69;2052831;70;20047;-72
2022/05/01 08:59:25;;;;;;;;;;;;;;;12.49;64.03;92974.19;2052733;69;20079;-72
2022/05/01 09:01:52;;;;;;;;;;;;;;;12.76;63.51;92971.53;2052554;69;20062;-72
2022/05/01 09:04:18;;;;;;;;;;;;;;;12.69;63.15;92967.63;2052552;69;20086;-71
2022/05/01 09:06:44;;;;;;;;;;;;;;;13.08;61.86;92966.97;2052447;69;20089;-73
2022/05/01 09:09:10;;;;;;;;;;;;;;;12.91;62.35;92965.31;2052447;69;20467;-73
2022/05/01 09:14:21;;;;;;;;;;;;;;;12.95;61.96;92967.63;2052503;70;20061;-71
2022/05/01 09:17:05;;;;;;;;;;;;;;;13.23;61.31;92966.41;2053498;69;20042;-71
2022/05/01 09:19:31;;;;;;;;;;;;;;;13.20;61.33;92970.47;2059404;69;20482;-71
2022/05/01 09:21:56;;;;;;;;;;;;;;;13.34;62.13;92959.25;2059040;69;20061;-71
2022/05/01 09:24:26;;;;;;;;;;;;;;;13.48;60.79;92960.00;2058997;69;20042;-71
2022/05/01 09:26:52;;;;;;;;;;;;;;;13.69;59.38;92956.16;2059078;69;20065;-71
2022/05/01 09:29:21;;;;;;;;;;;;;;;13.83;59.83;92959.00;2072196;69;20165;-71
2022/05/01 09:31:46;;;;;;;;;;;;;;;13.76;59.69;92951.56;2059265;69;20054;-73
2022/05/01 09:34:23;;;;;;;;;;;;;;;13.69;59.22;92959.00;2059311;69;20053;-72
2022/05/01 09:36:48;;;;;;;;;;;;;;;14.02;59.21;92955.06;2059057;69;20525;-72
2022/05/01 09:39:18;;;;;;;;;;;;;;;13.88;58.39;92955.06;2058863;69;20141;-72
2022/05/01 09:41:43;;;;;;;;;;;;;;;13.90;57.85;92952.31;2059135;69;20157;-73
2022/05/01 09:44:12;;;;;;;;;;;;;;;14.11;57.36;92954.13;2059121;69;20175;-74
2022/05/01 09:46:38;;;;;;;;;;;;;;;14.49;57.71;92948.97;2059104;69;20057;-75
2022/05/01 09:49:07;;;;;;;;;;;;;;;14.63;56.70;92943.28;2059025;69;20126;-72
2022/05/01 09:51:34;;;;;;;;;;;;;;;14.80;54.90;92939.13;2072117;69;20486;-72
2022/05/01 09:54:03;;;;;;;;;;;;;;;15.05;55.22;92941.78;2059041;69;20053;-72
2022/05/01 09:56:41;;;;;;;;;;;;;;;15.20;55.66;92940.34;2059126;69;20054;-75
2022/05/01 09:59:07;;;;;;;;;;;;;;;15.19;54.44;92936.06;2058735;69;20054;-72
2022/05/01 10:01:32;;;;;;;;;;;;;;;14.45;55.07;92935.31;2059055;69;20046;-73
2022/05/01 10:03:59;;;;;;;;;;;;;;;13.52;58.31;92936.88;2059084;69;20046;-74
2022/05/01 10:06:27;;;;;;;;;;;;;;;14.02;57.22;92935.25;2072047;69;20057;-75
2022/05/01 10:08:53;;;;;;;;;;;;;;;14.67;55.40;92934.97;2058973;69;20054;-74
2022/05/01 10:11:19;;;;;;;;;;;;;;;14.01;56.28;92930.19;2069267;69;20058;-73
2022/05/01 10:13:45;;;;;;;;;;;;;;;15.02;55.44;92926.03;2058884;69;20061;-72
2022/05/01 10:16:15;;;;;;;;;;;;;;;14.93;53.78;92922.09;2058573;69;20119;-73
2022/05/01 10:18:41;;;;;;;;;;;;;;;15.38;53.09;92915.69;2058493;69;20057;-72
2022/05/01 10:24:37;;;;;;;;;;;;;;;15.13;52.78;92918.78;2059118;69;20049;-73
2022/05/01 10:27:21;;;;;;;;;;;;;;;15.03;52.93;92916.19;2059072;69;20478;-71
2022/05/01 10:32:54;;;;;;;;;;;;;;;14.44;53.51;92914.00;2058988;69;20081;-72
2022/05/01 10:35:26;;;;;;;;;;;;;;;14.89;52.25;92910.56;2071977;69;20441;-71
2022/05/01 10:38:05;;;;;;;;;;;;;;;14.83;53.99;92910.25;2058957;69;20080;-73
2022/05/01 10:40:32;;;;;;;;;;;;;;;14.70;52.54;92900.44;2058980;69;20050;-71
2022/05/01 10:43:18;;;;;;;;;;;;;;;14.78;51.59;92902.19;2059015;69;20139;-74
2022/05/01 10:45:43;;;;;;;;;;;;;;;14.90;50.46;92899.97;2059069;69;20432;-71
2022/05/01 10:48:10;;;;;;;;;;;;;;;14.65;52.58;92893.09;2058972;69;20054;-72
2022/05/01 10:54:10;;;;;;;;;;;;;;;15.03;50.77;92889.91;2059014;69;20045;-72
2022/05/01 10:56:40;;;;;;;;;;;;;;;15.46;50.09;92884.88;2058942;69;20070;-73
2022/05/01 10:59:24;;;;;;;;;;;;;;;15.63;48.10;92880.66;2058906;69;20118;-73
2022/05/01 11:01:56;;;;;;;;;;;;;;;16.47;48.40;92878.63;2058925;69;20107;-74
2022/05/01 11:04:22;;;;;;;;;;;;;;;15.64;50.47;92870.81;2072028;69;20049;-74
2022/05/01 11:06:55;;;;;;;;;;;;;;;16.65;48.62;92872.97;2058847;69;20058;-71
2022/05/01 11:09:25;;;;;;;;;;;;;;;16.38;48.74;92868.28;2058843;69;20186;-72
2022/05/01 11:15:26;;;;;;;;;;;;;;;16.50;47.94;92858.16;2058944;69;20562;-68
2022/05/01 11:17:52;;;;;;;;;;;;;;;17.14;47.26;92855.03;2058477;69;20046;-68
2022/05/01 11:20:21;;;;;;;;;;;;;;;17.47;45.96;92852.03;2058840;69;20056;-70
2022/05/01 11:22:51;;;;;;;;;;;;;;;18.79;44.22;92849.59;2072099;69;20086;-70
2022/05/01 11:25:38;;;;;;;;;;;;;;;19.36;43.06;92842.81;2059018;69;20049;-70
2022/05/01 11:28:05;;;;;;;;;;;;;;;20.67;40.38;92843.66;2058880;69;20126;-70
2022/05/01 11:34:19;;;;;;;;;;;;;;;24.17;35.30;92849.66;2059137;69;20421;-70
2022/05/01 11:36:55;;;;;;;;;;;;;;;22.53;35.58;92846.38;2058892;69;20050;-71
2022/05/01 11:39:21;;;;;;;;;;;;;;;22.27;35.93;92840.16;2071539;69;20453;-71
2022/05/01 11:41:57;;;;;;;;;;;;;;;21.41;36.72;92846.19;2058652;69;20046;-71
2022/05/01 11:44:24;;;;;;;;;;;;;;;20.96;37.15;92834.38;2071773;69;20450;-70
2022/05/01 11:46:53;;;;;;;;;;;;;;;22.23;34.75;92832.19;2058760;69;20089;-70
2022/05/01 11:52:49;;;;;;;;;;;;;;;22.30;34.33;92821.53;2058907;69;20091;-73
2022/05/01 11:55:18;;;;;;;;;;;;;;;20.76;35.97;92828.16;2059034;69;20070;-71
2022/05/01 12:03:27;;;;;;;;;;;;;;;20.70;36.54;92819.41;2058854;69;20050;-70
2022/05/01 12:05:52;;;;;;;;;;;;;;;21.64;34.73;92813.03;2058666;69;20512;-69
2022/05/01 12:08:22;;;;;;;;;;;;;;;22.42;32.57;92807.44;2058702;69;20057;-69
2022/05/01 12:14:16;;;;;;;;;;;;;;;22.89;33.54;92793.19;2058696;69;20080;-69
2022/05/01 12:16:43;;;;;;;;;;;;;;;23.34;33.09;92803.97;2058546;69;20051;-69
2022/05/01 12:19:10;;;;;;;;;;;;;;;23.50;33.00;92797.75;2058734;69;20054;-68
2022/05/01 12:21:35;;;;;;;;;;;;;;;24.02;32.44;92802.03;2071716;69;20158;-69
2022/05/01 12:24:02;;;;;;;;;;;;;;;24.14;32.77;92802.16;2058714;69;20466;-70
2022/05/01 12:26:29;;;;;;;;;;;;;;;25.17;30.85;92795.34;2071409;69;20108;-70
2022/05/01 12:28:54;;;;;;;;;;;;;;;25.44;31.29;92796.25;2058445;69;20129;-70
2022/05/01 12:31:20;;;;;;;;;;;;;;;25.69;30.34;92794.94;2058664;69;20295;-72
2022/05/01 12:33:52;;;;;;;;;;;;;;;25.06;31.50;92785.84;2058579;69;20522;-70
2022/05/01 12:36:25;;;;;;;;;;;;;;;25.18;31.40;92785.25;2058569;69;20604;-70
2022/05/01 12:39:00;;;;;;;;;;;;;;;25.39;31.18;92781.09;2058716;69;20054;-69
2022/05/01 12:45:10;;;;;;;;;;;;;;;23.61;32.26;92766.28;2058710;69;20053;-70
2022/05/01 12:47:38;;;;;;;;;;;;;;;24.82;30.23;92772.69;2058294;69;20491;-71
2022/05/01 12:53:35;;;;;;;;;;;;;;;26.22;28.11;92762.78;2058679;69;20053;-69
2022/05/01 12:59:30;;;;;;;;;;;;;;;26.24;26.96;92754.13;2058646;69;20040;-74
2022/05/01 13:01:57;;;;;;;;;;;;;;;26.59;27.24;92754.97;2058859;69;20161;-73
2022/05/01 13:04:26;;;;;;;;;;;;;;;26.76;27.84;92749.94;2059189;69;20061;-72
2022/05/01 13:06:51;;;;;;;;;;;;;;;27.06;27.10;92749.22;2059132;69;20128;-72
2022/05/01 13:09:17;;;;;;;;;;;;;;;27.55;25.52;92741.25;2059161;69;20153;-74
2022/05/01 13:12:02;;;;;;;;;;;;;;;25.74;25.84;92738.03;2059175;69;20085;-74
2022/05/01 13:14:35;;;;;;;;;;;;;;;25.01;26.92;92741.16;2069492;69;20054;-73
2022/05/01 13:17:11;;;;;;;;;;;;;;;24.33;28.04;92731.22;2059073;69;20104;-73
2022/05/01 13:19:38;;;;;;;;;;;;;;;26.62;26.21;92727.56;2059170;69;20086;-72
2022/05/01 13:22:05;;;;;;;;;;;;;;;27.15;26.52;92718.91;2072123;69;20137;-73
2022/05/01 13:24:34;;;;;;;;;;;;;;;27.96;25.11;92725.97;2059197;69;20093;-76
2022/05/01 13:27:00;;;;;;;;;;;;;;;30.79;22.75;92722.72;2058870;69;20115;-73
2022/05/01 13:29:26;;;;;;;;;;;;;;;29.07;22.22;92713.03;2059120;69;20080;-72
2022/05/01 13:31:51;;;;;;;;;;;;;;;30.43;22.50;92718.88;2059359;69;20062;-73
2022/05/01 13:34:18;;;;;;;;;;;;;;;29.46;22.59;92712.69;2059116;69;20046;-73
2022/05/01 13:36:44;;;;;;;;;;;;;;;29.48;23.29;92714.84;2059059;69;20046;-77
2022/05/01 13:39:10;;;;;;;;;;;;;;;26.46;26.12;92692.88;2059263;69;20042;-77
2022/05/01 13:46:54;;;;;;;;;;;;;;;22.85;29.50;92681.91;2059279;69;20061;-73
2022/05/01 13:49:21;;;;;;;;;;;;;;;23.55;29.45;92684.34;2059024;69;20141;-73
2022/05/01 13:51:46;;;;;;;;;;;;;;;23.19;29.11;92675.97;2058996;69;20118;-72
2022/05/01 13:54:12;;;;;;;;;;;;;;;23.13;30.84;92664.38;2059117;69;20058;-73
2022/05/01 13:56:38;;;;;;;;;;;;;;;22.12;31.17;92680.72;2059100;69;20134;-71
2022/05/01 13:59:04;;;;;;;;;;;;;;;20.45;32.54;92672.94;2059097;69;20489;-71
2022/05/01 14:01:30;;;;;;;;;;;;;;;20.50;34.11;92665.94;2059225;69;20045;-71
2022/05/01 14:03:58;;;;;;;;;;;;;;;20.90;32.52;92671.13;2059046;69;20214;-71
2022/05/01 14:06:25;;;;;;;;;;;;;;;19.92;33.29;92665.19;2059007;69;20061;-73
2022/05/01 14:08:51;;;;;;;;;;;;;;;20.14;34.22;92665.03;2058970;69;20474;-71
2022/05/01 14:11:16;;;;;;;;;;;;;;;19.64;35.52;92668.75;2059075;69;20581;-71
2022/05/01 14:13:42;;;;;;;;;;;;;;;20.11;35.49;92669.22;2058997;69;20042;-71
2022/05/01 14:16:07;;;;;;;;;;;;;;;19.84;36.08;92673.53;2059065;69;20046;-74
2022/05/01 14:18:34;;;;;;;;;;;;;;;19.68;35.78;92671.00;2059068;69;20219;-73
2022/05/01 14:21:00;;;;;;;;;;;;;;;19.83;36.38;92672.09;2058940;69;20144;-71
2022/05/01 14:23:27;;;;;;;;;;;;;;;19.34;36.18;92670.78;2059037;69;20084;-72
2022/05/01 14:25:52;;;;;;;;;;;;;;;18.51;37.66;92664.78;2059095;69;20083;-73